Weather History for Mount Werner, CO

Change the Weather History Date:

Sunday, January 6, 2013

  Actual Average Record
Temperature  
Mean Temperature 28 °F -  
Max Temperature 35 °F - - ()
Min Temperature 21 °F - - ()
Degree Days  
Heating Degree Days 37    
Moisture  
Dew Point -21 °F    
Average Humidity 12    
Maximum Humidity 26    
Minimum Humidity 4    
Precipitation  
Precipitation 0.00 in - - ()
Sea Level Pressure  
Sea Level Pressure 30.02 in    
Wind  
Wind Speed 10 mph (SW)    
Max Wind Speed 16 mph    
Max Gust Speed 20 mph    
Visibility 10 miles    
Events      
T = Trace of Precipitation, MM = Missing Value Source: NWS Daily Summary

Daily Weather History Graph

Daily Weather History Graph

Search for Another Location

Airport:

Trip Planner

Search our weather history database for the weather conditions in past years. The results will help you decide how hot, cold, wet, or windy it might be!

Date:

Astronomy

Jan. 06, 2013 Rise Set
Actual Time 7:30 AM MST 4:56 PM MST
Civil Twilight 6:59 AM MST 5:26 PM MST
Nautical Twilight 6:25 AM MST 6:00 PM MST
Astronomical Twilight 5:52 AM MST 6:33 PM MST
Moon 1:47 AM MST (1/6) 12:25 PM MST (1/6)
Length of Visible Light 10h 26m
Length of Day
9h 25m
Waning Crescent, 32% of the Moon is Illuminated
Jan 6
Waning Crescent
Jan 11
New
Jan 18
First Quarter
Jan 26
Full
Feb 3
Last Quarter

Hourly Weather History & Observations

Time (MST) Temp. Windchill Dew Point Humidity Pressure Visibility Wind Dir Wind Speed Gust Speed Precip Events Conditions
12:15 AM 21.2 °F 12.6 °F -13.0 °F 22% 30.13 in 10.0 mi SE 6.9 mph - N/A   Clear
12:35 AM 21.2 °F 10.9 °F -9.4 °F 26% 30.12 in 10.0 mi ESE 9.2 mph - N/A   Clear
12:55 AM 21.2 °F 9.5 °F -13.0 °F 22% 30.11 in 10.0 mi SSE 11.5 mph - N/A   Clear
1:15 AM 23.0 °F 10.6 °F -20.2 °F 14% 30.11 in 10.0 mi SSE 13.8 mph - N/A   Clear
1:35 AM 24.8 °F 12.4 °F -25.6 °F 10% 30.11 in 10.0 mi SE 15.0 mph - N/A   Clear
1:55 AM 24.8 °F 12.4 °F -27.4 °F 9% 30.11 in 10.0 mi SSE 15.0 mph - N/A   Clear
2:15 AM 26.6 °F 14.3 °F -27.4 °F 8% 30.11 in 10.0 mi SSE 16.1 mph - N/A   Clear
2:35 AM 26.6 °F 14.3 °F -27.4 °F 8% 30.11 in 10.0 mi SSE 16.1 mph - N/A   Clear
2:55 AM 28.4 °F 17.5 °F -40.0 °F 4% 30.11 in 10.0 mi South 13.8 mph - N/A   Clear
3:15 AM 28.4 °F 18.5 °F -45.4 °F 4% 30.10 in 10.0 mi SSE 11.5 mph - N/A   Clear
3:35 AM 28.4 °F 19.1 °F -49.0 °F 4% 30.10 in 10.0 mi South 10.4 mph - N/A   Clear
3:55 AM 28.4 °F 18.5 °F -47.2 °F 4% 30.10 in 10.0 mi South 11.5 mph - N/A   Clear
4:15 AM 30.2 °F 21.3 °F -36.4 °F 5% 30.09 in 10.0 mi SSW 10.4 mph - N/A   Clear
4:35 AM 30.2 °F 21.3 °F -25.6 °F 8% 30.09 in 10.0 mi SW 10.4 mph - N/A   Clear
5:15 AM 28.4 °F 19.1 °F -16.6 °F 13% 30.08 in 10.0 mi WSW 10.4 mph - N/A   Clear
5:35 AM 28.4 °F 20.4 °F -18.4 °F 12% 30.08 in 10.0 mi West 8.1 mph - N/A   Clear
5:55 AM 28.4 °F 19.7 °F -22.0 °F 10% 30.07 in 10.0 mi West 9.2 mph - N/A   Clear
6:15 AM 28.4 °F 19.7 °F -22.0 °F 10% 30.07 in 10.0 mi WSW 9.2 mph - N/A   Clear
6:35 AM 28.4 °F 19.1 °F -22.0 °F 10% 30.07 in 10.0 mi WSW 10.4 mph - N/A   Clear
6:55 AM 30.2 °F 21.3 °F -18.4 °F 11% 30.07 in 10.0 mi WSW 10.4 mph - N/A   Clear
7:15 AM 30.2 °F 20.8 °F -14.8 °F 14% 30.07 in 10.0 mi SW 11.5 mph - N/A   Clear
7:35 AM 30.2 °F 21.3 °F -23.8 °F 9% 30.07 in 10.0 mi SSW 10.4 mph - N/A   Clear
7:55 AM 30.2 °F 20.8 °F -29.2 °F 7% 30.07 in 10.0 mi SSW 11.5 mph - N/A   Clear
8:15 AM 30.2 °F 21.9 °F -38.2 °F 4% 30.08 in 10.0 mi SSW 9.2 mph - N/A   Clear
8:35 AM 30.2 °F 21.9 °F -41.8 °F 4% 30.08 in 10.0 mi SSW 9.2 mph - N/A   Clear
8:55 AM 32.0 °F 24.8 °F -27.4 °F 7% 30.08 in 10.0 mi SSW 8.1 mph - N/A   Clear
9:15 AM 32.0 °F 23.6 °F -20.2 °F 10% 30.08 in 10.0 mi South 10.4 mph - N/A   Clear
9:35 AM 32.0 °F 23.0 °F -18.4 °F 11% 30.08 in 10.0 mi South 11.5 mph - N/A   Clear
9:55 AM 32.0 °F 23.0 °F -22.0 °F 9% 30.08 in 10.0 mi South 11.5 mph - N/A   Clear
10:35 AM 33.8 °F 25.3 °F -25.6 °F 7% 30.07 in 10.0 mi South 11.5 mph 17.3 mph N/A   Clear
10:55 AM 33.8 °F 24.8 °F -31.0 °F 5% 30.06 in 10.0 mi SSW 12.7 mph - N/A   Clear
11:35 AM 33.8 °F 27.0 °F -32.8 °F 5% 30.03 in 10.0 mi South 8.1 mph - N/A   Clear
11:55 AM 33.8 °F 27.0 °F -40.0 °F 4% 30.02 in 10.0 mi South 8.1 mph - N/A   Clear
12:15 PM 35.6 °F 29.2 °F -25.6 °F 6% 30.01 in 10.0 mi South 8.1 mph - N/A   Clear
12:35 PM 35.6 °F 28.6 °F -14.8 °F 11% 30.00 in 10.0 mi SSE 9.2 mph - N/A   Clear
12:55 PM 33.8 °F 27.0 °F -22.0 °F 8% 29.99 in 10.0 mi SSW 8.1 mph - N/A   Clear
1:15 PM 33.8 °F 29.6 °F -14.8 °F 12% 29.98 in 10.0 mi SW 4.6 mph - N/A   Clear
1:35 PM 33.8 °F 28.6 °F -14.8 °F 12% 29.97 in 10.0 mi SW 5.8 mph - N/A   Clear
1:55 PM 32.0 °F 26.4 °F -14.8 °F 13% 29.97 in 10.0 mi WSW 5.8 mph - N/A   Clear
2:15 PM 33.8 °F 28.6 °F -16.6 °F 11% 29.96 in 10.0 mi WSW 5.8 mph - N/A   Clear
2:35 PM 33.8 °F 29.6 °F -25.6 °F 7% 29.96 in 10.0 mi West 4.6 mph - N/A   Clear
2:55 PM 32.0 °F 26.4 °F -20.2 °F 10% 29.96 in 10.0 mi West 5.8 mph - N/A   Clear
3:15 PM 32.0 °F 27.5 °F -18.4 °F 11% 29.95 in 10.0 mi West 4.6 mph - N/A   Clear
3:35 PM 32.0 °F 27.5 °F -18.4 °F 11% 29.95 in 10.0 mi WSW 4.6 mph - N/A   Clear
3:55 PM 30.2 °F 21.9 °F -14.8 °F 14% 29.95 in 10.0 mi WNW 9.2 mph - N/A   Clear
4:15 PM 28.4 °F 21.2 °F -16.6 °F 13% 29.95 in 10.0 mi WNW 6.9 mph - N/A   Clear
4:35 PM 28.4 °F 22.2 °F -16.6 °F 13% 29.94 in 10.0 mi WNW 5.8 mph - N/A   Clear
4:55 PM 26.6 °F 18.2 °F -14.8 °F 16% 29.94 in 10.0 mi WNW 8.1 mph - N/A   Clear
5:15 PM 26.6 °F 18.2 °F -13.0 °F 17% 29.94 in 10.0 mi WNW 8.1 mph - N/A   Clear
5:35 PM 26.6 °F 17.5 °F -9.4 °F 21% 29.94 in 10.0 mi WNW 9.2 mph - N/A   Clear
5:55 PM 26.6 °F 18.2 °F -13.0 °F 17% 29.94 in 10.0 mi WNW 8.1 mph - N/A   Clear
6:15 PM 26.6 °F 17.5 °F -11.2 °F 19% 29.94 in 10.0 mi WNW 9.2 mph - N/A   Scattered Clouds
6:35 PM 26.6 °F 18.2 °F -9.4 °F 21% 29.94 in 10.0 mi West 8.1 mph - N/A   Scattered Clouds
6:55 PM 28.4 °F 19.1 °F -9.4 °F 19% 29.93 in 10.0 mi WSW 10.4 mph - N/A   Clear
7:15 PM 28.4 °F 18.0 °F -11.2 °F 18% 29.93 in 10.0 mi WSW 12.7 mph - N/A   Clear
7:35 PM 28.4 °F 19.1 °F -11.2 °F 18% 29.92 in 10.0 mi WSW 10.4 mph - N/A   Scattered Clouds
7:55 PM 28.4 °F 18.5 °F -11.2 °F 18% 29.92 in 10.0 mi WSW 11.5 mph - N/A   Scattered Clouds
8:15 PM 28.4 °F 17.5 °F -13.0 °F 16% 29.92 in 10.0 mi WSW 13.8 mph - N/A   Clear
9:35 PM 26.6 °F 15.7 °F -11.2 °F 19% 29.92 in 10.0 mi West 12.7 mph 18.4 mph N/A   Clear
9:55 PM 26.6 °F 15.7 °F -13.0 °F 17% 29.92 in 10.0 mi West 12.7 mph 18.4 mph N/A   Mostly Cloudy
10:35 PM 26.6 °F 16.2 °F -14.8 °F 16% 29.92 in 10.0 mi West 11.5 mph 18.4 mph N/A   Scattered Clouds
10:55 PM 26.6 °F 15.2 °F -16.6 °F 14% 29.92 in 10.0 mi West 13.8 mph 18.4 mph N/A   Scattered Clouds
11:15 PM 26.6 °F 17.5 °F -18.4 °F 13% 29.92 in 10.0 mi West 9.2 mph 19.6 mph N/A   Scattered Clouds
11:55 PM 26.6 °F 15.2 °F -18.4 °F 13% 29.91 in 10.0 mi WSW 13.8 mph 18.4 mph N/A   Clear